Aérodrome :
LOGIN :

S'inscrire | Disclaimer

   EN    FR    IT 

 










Légende :    VFR   VFR Marginal   IFR   IFR Intensif   IFR Très Intensif
Visi : 
Plafond : 
>= 8 km
>= 3000ft
5 à 8 km
1000 à 3000 ft
1500m à 5 km
500 à 1000 ft
800 à 1500m
200 à 500 ft
< 800m
< 200 ft
Symboles :   Orages  Brouillard  Fortes neiges  Fortes précipitations  Vent > 20 kt
SIGMETs :   Divers  Orages  Givrage  Turbulence  Onde Orograph.  Cendres Volcan.






- Altitude de l'aérodrome : 1260 ft
- Code IATA : LDE


LFBT - Tarbes / Ossun

DERNIER METAR :
  • 150200Z AUTO 16005KT CAVOK 07/05 Q1010 NOSIG

METARs EXPIRÉS :
  • 150130Z AUTO 16007KT CAVOK 07/07 Q1011 NOSIG
  • 150100Z AUTO 17005KT CAVOK 06/06 Q1011 NOSIG
  • 150030Z AUTO 18005KT 150V210 CAVOK 07/06 Q1011 NOSIG
  • 150000Z AUTO 18005KT CAVOK 06/06 Q1011 NOSIG
  • 142330Z AUTO 15003KT 080V180 CAVOK 07/06 Q1011 NOSIG
  • 142300Z AUTO 16006KT 130V190 CAVOK 08/07 Q1011 NOSIG

TAF TAF LFBT
Valide du 15 à 00h jusqu'au 16 à 00h UTC


142300Z 1500/1524 VRB03KT CAVOK
TEMPO 1512/1516 09010KT



MET'MAP, la Météo Aéronautique d'un coup d'oeil ! - Copyright ORBIFLY Décembre 2007 - Disclaimer

ORBIFLY MET'MAP TEAM :

Programmation & Développement : Alexandra Zaïnal
Sur une idée originale de : Baudouin d'Aumeries
Assistance à la programmation : Marc-Olivier Méhu
Soutien technique & logistique : Manuel Goepfert

Contact : metmap@orbifly.com




SOURCES & CREDITS :

   NOAA